createdAt,value
2023-05-15T00:01:18.808Z,99960.19
2023-05-15T00:03:31.724Z,99959.58
2023-05-15T00:05:44.521Z,99954.30
2023-05-15T00:07:57.252Z,99949.45
2023-05-15T00:10:10.093Z,99946.88
2023-05-15T00:12:22.726Z,99946.37
2023-05-15T00:14:35.264Z,99935.54
2023-05-15T00:16:47.887Z,99925.20
2023-05-15T00:19:00.522Z,99923.81
2023-05-15T00:21:13.190Z,99915.83
2023-05-15T00:23:25.890Z,99913.80
2023-05-15T00:25:38.467Z,99909.67
2023-05-15T00:27:51.027Z,99907.58
2023-05-15T00:30:03.899Z,99904.34
2023-05-15T00:32:16.603Z,99900.52
2023-05-15T00:34:29.131Z,99893.71
2023-05-15T00:36:41.780Z,99894.13
2023-05-15T00:38:54.389Z,99893.09
2023-05-15T00:41:07.760Z,99893.92
2023-05-15T00:43:21.041Z,99897.20
2023-05-15T00:45:34.498Z,99895.70
2023-05-15T00:47:47.373Z,99894.08
2023-05-15T00:50:00.435Z,99884.88
2023-05-15T00:52:14.037Z,99873.14
2023-05-15T00:54:26.674Z,99865.04
2023-05-15T00:56:40.238Z,99846.21
2023-05-15T00:58:54.054Z,99836.98
2023-05-15T01:01:08.522Z,99835.91
2023-05-15T01:03:21.543Z,99832.85
2023-05-15T01:05:34.513Z,99825.05
2023-05-15T01:08:03.878Z,99821.58
2023-05-15T01:10:18.022Z,99819.42
2023-05-15T01:12:32.521Z,99822.80
2023-05-15T01:14:45.615Z,99827.77
2023-05-15T01:16:58.174Z,99822.25
2023-05-15T01:19:10.804Z,99812.42
2023-05-15T01:21:36.152Z,99802.44
2023-05-15T01:24:25.621Z,99806.27
2023-05-15T01:27:00.060Z,99804.87
2023-05-15T01:29:24.619Z,99804.23
2023-05-15T01:31:40.054Z,99810.23
2023-05-15T01:33:58.255Z,99809.45
2023-05-15T01:36:16.462Z,99809.23
2023-05-15T01:38:38.610Z,99806.13
2023-05-15T01:40:59.950Z,99806.96
2023-05-15T01:43:18.238Z,99812.20
2023-05-15T01:45:32.252Z,99807.98
2023-05-15T01:47:47.159Z,99798.11
2023-05-15T01:50:02.872Z,99795.97
2023-05-15T01:52:25.328Z,99797.19
2023-05-15T01:54:39.514Z,99798.76
2023-05-15T01:56:52.704Z,99793.27
2023-05-15T01:59:05.521Z,99786.45
2023-05-15T02:01:18.875Z,99778.95
2023-05-15T02:03:35.716Z,99775.80
2023-05-15T02:05:50.098Z,99769.00
2023-05-15T02:08:04.359Z,99767.73
2023-05-15T02:10:18.329Z,99761.61
2023-05-15T02:12:32.080Z,99754.61
2023-05-15T02:14:46.637Z,99750.76
2023-05-15T02:16:59.209Z,99751.06
2023-05-15T02:19:11.951Z,99747.81
2023-05-15T02:21:24.694Z,99747.55
2023-05-15T02:23:37.362Z,99750.06
2023-05-15T02:26:18.157Z,99741.24
2023-05-15T02:28:38.714Z,99738.65
2023-05-15T02:30:58.108Z,99732.90
2023-05-15T02:33:25.867Z,99727.00
2023-05-15T02:35:48.856Z,99721.19
2023-05-15T02:38:06.967Z,99720.58
2023-05-15T02:40:20.841Z,99716.45
2023-05-15T02:42:34.592Z,99713.62
2023-05-15T02:44:48.639Z,99705.28
2023-05-15T02:47:02.345Z,99701.67
2023-05-15T02:49:15.422Z,99702.27
2023-05-15T02:51:28.006Z,99698.60
2023-05-15T02:53:42.032Z,99688.81
2023-05-15T02:55:54.591Z,99685.72
2023-05-15T02:58:07.209Z,99682.36
2023-05-15T03:00:20.088Z,99675.80
2023-05-15T03:02:32.660Z,99677.27
2023-05-15T03:04:46.452Z,99676.80
2023-05-15T03:07:00.602Z,99670.68
2023-05-15T03:09:13.180Z,99666.61
2023-05-15T03:11:25.816Z,99662.27
2023-05-15T03:13:38.352Z,99658.94
2023-05-15T03:15:52.615Z,99657.11
2023-05-15T03:18:05.315Z,99649.95
2023-05-15T03:20:18.017Z,99648.89
2023-05-15T03:22:30.548Z,99646.29
2023-05-15T03:24:43.215Z,99640.10
2023-05-15T03:26:55.787Z,99635.17
2023-05-15T03:29:08.625Z,99631.38
2023-05-15T03:31:21.269Z,99631.88
2023-05-15T03:33:34.501Z,99628.92
2023-05-15T03:35:47.104Z,99621.53
2023-05-15T03:37:59.694Z,99616.83
2023-05-15T03:40:12.755Z,99618.27
2023-05-15T03:42:25.511Z,99618.12
2023-05-15T03:44:38.422Z,99613.98
2023-05-15T03:46:51.002Z,99610.80
2023-05-15T03:49:03.762Z,99605.17
2023-05-15T03:51:16.344Z,99601.45
2023-05-15T03:53:28.908Z,99599.83
2023-05-15T03:55:41.519Z,99603.44
2023-05-15T03:57:54.723Z,99601.87
2023-05-15T04:00:10.853Z,99598.33
2023-05-15T04:02:23.550Z,99600.77
2023-05-15T04:04:36.339Z,99598.24
2023-05-15T04:06:50.402Z,99599.36
2023-05-15T04:09:03.017Z,99606.42
2023-05-15T04:11:16.510Z,99602.15
2023-05-15T04:13:29.140Z,99599.21
2023-05-15T04:15:42.192Z,99599.64
2023-05-15T04:17:55.024Z,99592.91
2023-05-15T04:20:08.729Z,99591.79
2023-05-15T04:22:21.420Z,99594.22
2023-05-15T04:24:33.989Z,99591.21
2023-05-15T04:26:46.638Z,99587.25
2023-05-15T04:29:04.124Z,99586.59
2023-05-15T04:31:17.344Z,99586.10
2023-05-15T04:33:29.926Z,99586.99
2023-05-15T04:35:42.516Z,99582.26
2023-05-15T04:37:55.138Z,99584.60
2023-05-15T04:40:09.288Z,99585.26
2023-05-15T04:42:21.897Z,99583.45
2023-05-15T04:44:34.555Z,99583.77
2023-05-15T04:46:47.235Z,99582.49
2023-05-15T04:48:59.927Z,99582.36
2023-05-15T04:51:12.479Z,99577.21
2023-05-15T04:53:25.050Z,99575.90
2023-05-15T04:55:37.619Z,99570.67
2023-05-15T04:57:51.170Z,99567.86
2023-05-15T05:00:11.962Z,99564.31
2023-05-15T05:02:24.571Z,99563.93
2023-05-15T05:04:37.274Z,99559.01
2023-05-15T05:06:50.149Z,99553.27
2023-05-15T05:09:03.267Z,99547.52
2023-05-15T05:11:15.854Z,99543.77
2023-05-15T05:13:28.413Z,99540.74
2023-05-15T05:15:40.957Z,99540.13
2023-05-15T05:17:53.893Z,99540.30
2023-05-15T05:20:12.709Z,99540.04
2023-05-15T05:22:26.233Z,99540.98
2023-05-15T05:24:38.757Z,99543.77
2023-05-15T05:26:51.286Z,99537.33
2023-05-15T05:29:03.826Z,99534.86
2023-05-15T05:31:16.425Z,99526.33
2023-05-15T05:33:29.001Z,99521.14
2023-05-15T05:35:41.597Z,99517.99
2023-05-15T05:37:54.101Z,99514.53
2023-05-15T05:40:08.617Z,99514.26
2023-05-15T05:42:21.129Z,99516.84
2023-05-15T05:44:34.591Z,99515.75
2023-05-15T05:46:47.180Z,99513.44
2023-05-15T05:48:59.965Z,99509.55
2023-05-15T05:51:12.494Z,99512.09
2023-05-15T05:53:25.010Z,99508.30
2023-05-15T05:55:37.767Z,99505.10
2023-05-15T05:57:51.014Z,99503.90
2023-05-15T06:00:06.993Z,99498.10
2023-05-15T06:02:19.657Z,99492.86
2023-05-15T06:04:35.739Z,99489.90
2023-05-15T06:06:49.967Z,99489.56
2023-05-15T06:09:04.046Z,99484.80
2023-05-15T06:11:16.883Z,99479.89
2023-05-15T06:13:29.416Z,99470.44
2023-05-15T06:15:44.939Z,99468.44
2023-05-15T06:17:57.555Z,99470.39
2023-05-15T06:20:10.437Z,99473.02
2023-05-15T06:22:22.974Z,99468.63
2023-05-15T06:24:35.583Z,99466.03
2023-05-15T06:26:49.262Z,99462.96
2023-05-15T06:29:02.924Z,99460.94
2023-05-15T06:31:15.524Z,99457.10
2023-05-15T06:33:28.240Z,99456.50
2023-05-15T06:35:41.360Z,99451.34
2023-05-15T06:37:54.106Z,99453.90
2023-05-15T06:40:07.704Z,99453.17
2023-05-15T06:42:20.270Z,99450.56
2023-05-15T06:44:32.916Z,99450.54
2023-05-15T06:46:45.512Z,99446.91
2023-05-15T06:48:58.044Z,99449.92
2023-05-15T06:51:10.822Z,99443.27
2023-05-15T06:53:23.470Z,99445.05
2023-05-15T06:55:38.119Z,99442.88
2023-05-15T06:57:50.863Z,99443.67
2023-05-15T07:00:04.790Z,99444.58
2023-05-15T07:02:17.417Z,99445.09
2023-05-15T07:04:31.144Z,99441.95
2023-05-15T07:06:43.999Z,99441.45
2023-05-15T07:08:56.541Z,99440.31
2023-05-15T07:11:09.081Z,99435.76
2023-05-15T07:13:21.850Z,99430.94
2023-05-15T07:15:34.367Z,99432.64
2023-05-15T07:17:47.019Z,99424.60
2023-05-15T07:19:59.639Z,99423.15
2023-05-15T07:22:12.163Z,99423.54
2023-05-15T07:24:24.863Z,99420.40
2023-05-15T07:26:46.616Z,99419.73
2023-05-15T07:29:10.370Z,99416.98
2023-05-15T07:31:24.228Z,99417.09
2023-05-15T07:33:36.785Z,99415.98
2023-05-15T07:35:50.750Z,99411.30
2023-05-15T07:38:03.488Z,99411.77
2023-05-15T07:40:16.062Z,99410.32
2023-05-15T07:42:28.559Z,99413.00
2023-05-15T07:44:43.077Z,99412.64
2023-05-15T07:46:58.690Z,99408.49
2023-05-15T07:49:11.212Z,99404.14
2023-05-15T07:51:23.854Z,99403.57
2023-05-15T07:53:36.407Z,99407.12
2023-05-15T07:55:48.951Z,99409.21
2023-05-15T07:58:01.595Z,99409.90
2023-05-15T08:00:14.650Z,99405.77
2023-05-15T08:02:27.258Z,99404.35
2023-05-15T08:04:39.928Z,99402.51
2023-05-15T08:06:52.608Z,99403.18
2023-05-15T08:09:05.297Z,99403.23
2023-05-15T08:11:18.537Z,99404.08
2023-05-15T08:13:31.104Z,99404.14
2023-05-15T08:15:43.666Z,99402.44
2023-05-15T08:17:56.347Z,99398.48
2023-05-15T08:20:09.748Z,99397.41
2023-05-15T08:22:22.262Z,99397.95
2023-05-15T08:24:34.808Z,99393.97
2023-05-15T08:26:47.332Z,99394.18
2023-05-15T08:28:59.901Z,99394.86
2023-05-15T08:31:12.543Z,99392.09
2023-05-15T08:33:25.128Z,99392.90
2023-05-15T08:35:37.776Z,99389.86
2023-05-15T08:37:50.398Z,99389.77
2023-05-15T08:40:05.942Z,99387.58
2023-05-15T08:42:25.014Z,99386.23
2023-05-15T08:44:39.224Z,99389.67
2023-05-15T08:46:53.451Z,99388.00
2023-05-15T08:49:19.192Z,99389.86
2023-05-15T08:51:31.723Z,99387.39
2023-05-15T08:53:46.018Z,99391.73
2023-05-15T08:55:58.667Z,99393.34
2023-05-15T08:58:11.846Z,99393.52
2023-05-15T09:00:24.459Z,99393.08
2023-05-15T09:02:37.584Z,99390.80
2023-05-15T09:04:50.500Z,99390.77
2023-05-15T09:07:04.105Z,99391.29
2023-05-15T09:09:18.325Z,99392.98
2023-05-15T09:11:31.852Z,99395.14
2023-05-15T09:13:44.389Z,99392.16
2023-05-15T09:15:57.183Z,99388.50
2023-05-15T09:18:09.915Z,99385.53
2023-05-15T09:20:38.164Z,99382.37
2023-05-15T09:22:50.754Z,99381.31
2023-05-15T09:25:04.427Z,99382.76
2023-05-15T09:27:17.295Z,99380.36
2023-05-15T09:29:31.520Z,99385.45
2023-05-15T09:31:46.711Z,99384.01
2023-05-15T09:34:04.639Z,99385.69
2023-05-15T09:36:21.717Z,99385.89
2023-05-15T09:38:39.625Z,99389.58
2023-05-15T09:41:01.608Z,99387.75
2023-05-15T09:43:14.156Z,99387.52
2023-05-15T09:45:29.795Z,99390.64
2023-05-15T09:47:42.616Z,99390.14
2023-05-15T09:49:56.027Z,99381.73
2023-05-15T09:52:12.417Z,99378.52
2023-05-15T09:54:27.399Z,99377.85
2023-05-15T09:56:41.518Z,99372.20
2023-05-15T09:58:58.782Z,99370.15
2023-05-15T10:01:12.308Z,99371.17
2023-05-15T10:03:24.913Z,99373.02
2023-05-15T10:05:43.532Z,99372.70
2023-05-15T10:07:57.346Z,99381.52
2023-05-15T10:10:10.211Z,99382.13
2023-05-15T10:12:24.768Z,99384.64
2023-05-15T10:14:37.451Z,99385.27
2023-05-15T10:16:51.273Z,99383.61
2023-05-15T10:19:08.811Z,99388.98
2023-05-15T10:21:23.046Z,99392.10
2023-05-15T10:23:37.560Z,99389.95
2023-05-15T10:26:03.209Z,99391.20
2023-05-15T10:28:17.137Z,99391.13
2023-05-15T10:30:31.388Z,99390.30
2023-05-15T10:32:45.352Z,99393.66
2023-05-15T10:34:58.645Z,99392.82
2023-05-15T10:37:12.464Z,99394.18
2023-05-15T10:39:27.641Z,99391.60
2023-05-15T10:41:40.474Z,99391.21
2023-05-15T10:43:54.248Z,99388.78
2023-05-15T10:46:07.732Z,99386.98
2023-05-15T10:48:20.907Z,99388.11
2023-05-15T10:50:33.727Z,99389.71
2023-05-15T10:52:46.350Z,99391.29
2023-05-15T10:54:59.924Z,99393.83
2023-05-15T10:57:14.604Z,99394.48
2023-05-15T10:59:32.135Z,99401.28
2023-05-15T11:01:44.729Z,99399.98
2023-05-15T11:04:17.752Z,99387.60
2023-05-15T11:06:33.854Z,99388.34
2023-05-15T11:08:46.667Z,99389.30
2023-05-15T11:10:59.428Z,99386.86
2023-05-15T11:13:12.169Z,99387.14
2023-05-15T11:15:25.114Z,99383.64
2023-05-15T11:17:37.770Z,99381.06
2023-05-15T11:19:50.812Z,99371.55
2023-05-15T11:22:09.260Z,99372.91
2023-05-15T11:24:22.359Z,99368.11
2023-05-15T11:26:34.916Z,99367.98
2023-05-15T11:28:47.929Z,99360.75
2023-05-15T11:31:06.080Z,99361.94
2023-05-15T11:33:20.831Z,99357.69
2023-05-15T11:35:43.657Z,99355.78
2023-05-15T11:37:59.775Z,99354.29
2023-05-15T11:40:27.266Z,99354.42
2023-05-15T11:42:40.852Z,99353.78
2023-05-15T11:44:53.448Z,99356.39
2023-05-15T11:47:10.234Z,99355.40
2023-05-15T11:49:24.624Z,99353.02
2023-05-15T11:51:43.065Z,99352.86
2023-05-15T11:53:56.668Z,99350.73
2023-05-15T11:56:13.631Z,99351.80
2023-05-15T11:58:26.783Z,99350.59
2023-05-15T12:00:40.310Z,99346.55
2023-05-15T12:02:52.932Z,99343.17
2023-05-15T12:05:09.405Z,99342.98
2023-05-15T12:07:22.251Z,99343.13
2023-05-15T12:09:35.185Z,99339.57
2023-05-15T12:11:54.967Z,99340.90
2023-05-15T12:14:11.566Z,99332.83
2023-05-15T12:16:28.455Z,99332.71
2023-05-15T12:18:41.171Z,99335.82
2023-05-15T12:20:54.554Z,99332.13
2023-05-15T12:23:08.062Z,99334.28
2023-05-15T12:25:20.686Z,99329.57
2023-05-15T12:27:37.118Z,99328.48
2023-05-15T12:29:49.749Z,99328.29
2023-05-15T12:32:02.683Z,99323.77
2023-05-15T12:34:15.390Z,99324.13
2023-05-15T12:36:29.797Z,99327.45
2023-05-15T12:38:42.426Z,99326.38
2023-05-15T12:40:55.245Z,99326.30
2023-05-15T12:43:08.510Z,99325.34
2023-05-15T12:45:22.774Z,99326.06
2023-05-15T12:47:36.740Z,99325.92
2023-05-15T12:49:49.292Z,99327.70
2023-05-15T12:52:08.486Z,99327.63
2023-05-15T12:54:21.050Z,99329.52
2023-05-15T12:56:33.647Z,99327.70
2023-05-15T12:58:47.832Z,99326.20
2023-05-15T13:01:02.785Z,99330.02
2023-05-15T13:03:15.866Z,99334.56
2023-05-15T13:05:31.307Z,99327.33
2023-05-15T13:07:44.361Z,99332.14
2023-05-15T13:10:07.693Z,99333.88
2023-05-15T13:12:20.405Z,99332.67
2023-05-15T13:14:33.412Z,99333.59
2023-05-15T13:16:46.856Z,99333.33
2023-05-15T13:18:59.672Z,99330.73
2023-05-15T13:21:12.212Z,99335.70
2023-05-15T13:23:24.915Z,99333.89
2023-05-15T13:25:37.764Z,99334.47
2023-05-15T13:27:50.638Z,99329.98
2023-05-15T13:30:03.369Z,99333.47
2023-05-15T13:32:15.936Z,99335.63
2023-05-15T13:34:28.490Z,99336.67
2023-05-15T13:36:41.146Z,99341.48
2023-05-15T13:38:53.698Z,99339.81
2023-05-15T13:41:06.332Z,99337.95
2023-05-15T13:43:18.892Z,99336.59
2023-05-15T13:45:31.550Z,99335.37
2023-05-15T13:47:44.762Z,99340.41
2023-05-15T13:49:57.992Z,99338.81
2023-05-15T13:52:12.702Z,99336.58
2023-05-15T13:54:25.287Z,99336.19
2023-05-15T13:56:38.155Z,99337.34
2023-05-15T13:58:50.795Z,99334.11
2023-05-15T14:01:05.867Z,99333.71
2023-05-15T14:03:18.678Z,99335.08
2023-05-15T14:05:31.280Z,99342.73
2023-05-15T14:07:43.964Z,99344.52
2023-05-15T14:09:56.497Z,99351.02
2023-05-15T14:12:09.762Z,99349.88
2023-05-15T14:14:22.335Z,99352.84
2023-05-15T14:16:35.085Z,99352.73
2023-05-15T14:18:47.722Z,99354.73
2023-05-15T14:21:00.568Z,99355.77
2023-05-15T14:23:13.185Z,99359.70
2023-05-15T14:25:25.933Z,99356.46
2023-05-15T14:27:38.639Z,99360.89
2023-05-15T14:29:51.377Z,99358.64
2023-05-15T14:32:04.203Z,99357.46
2023-05-15T14:34:18.034Z,99361.08
2023-05-15T14:36:30.641Z,99360.26
2023-05-15T14:38:45.621Z,99365.89
2023-05-15T14:40:58.530Z,99368.31
2023-05-15T14:43:11.128Z,99370.51
2023-05-15T14:45:23.911Z,99371.20
2023-05-15T14:47:36.731Z,99370.80
2023-05-15T14:49:49.341Z,99373.36
2023-05-15T14:52:02.657Z,99377.00
2023-05-15T14:54:15.217Z,99379.41
2023-05-15T14:56:27.789Z,99382.91
2023-05-15T14:58:40.319Z,99382.38
2023-05-15T15:00:52.882Z,99379.20
2023-05-15T15:03:05.663Z,99380.05
2023-05-15T15:05:18.594Z,99383.49
2023-05-15T15:07:31.216Z,99385.91
2023-05-15T15:09:43.707Z,99381.05
2023-05-15T15:11:56.223Z,99390.66
2023-05-15T15:14:08.742Z,99388.34
2023-05-15T15:16:21.615Z,99387.29
2023-05-15T15:18:34.580Z,99388.80
2023-05-15T15:20:47.217Z,99388.17
2023-05-15T15:23:00.035Z,99385.58
2023-05-15T15:25:13.035Z,99388.39
2023-05-15T15:27:25.559Z,99386.43
2023-05-15T15:29:38.173Z,99387.26
2023-05-15T15:31:50.764Z,99386.98
2023-05-15T15:34:05.549Z,99391.05
2023-05-15T15:36:18.524Z,99390.46
2023-05-15T15:38:31.103Z,99392.36
2023-05-15T15:40:43.719Z,99395.52
2023-05-15T15:42:56.333Z,99396.25
2023-05-15T15:45:10.036Z,99392.70
2023-05-15T15:47:22.882Z,99395.51
2023-05-15T15:49:35.606Z,99395.42
2023-05-15T15:51:48.129Z,99398.58
2023-05-15T15:54:00.716Z,99403.13
2023-05-15T15:56:13.291Z,99406.63
2023-05-15T15:58:25.849Z,99405.20
2023-05-15T16:00:38.424Z,99405.21
2023-05-15T16:02:51.082Z,99403.36
2023-05-15T16:05:03.860Z,99404.66
2023-05-15T16:07:16.734Z,99403.02
2023-05-15T16:09:29.425Z,99401.35
2023-05-15T16:11:41.966Z,99401.27
2023-05-15T16:13:54.806Z,99399.13
2023-05-15T16:16:07.393Z,99393.79
2023-05-15T16:18:19.930Z,99392.09
2023-05-15T16:20:34.894Z,99390.20
2023-05-15T16:22:47.857Z,99390.38
2023-05-15T16:25:00.465Z,99387.60
2023-05-15T16:27:13.300Z,99387.08
2023-05-15T16:29:26.334Z,99385.82
2023-05-15T16:31:39.021Z,99390.51
2023-05-15T16:33:52.127Z,99391.34
2023-05-15T16:36:05.227Z,99386.33
2023-05-15T16:38:19.300Z,99390.00
2023-05-15T16:40:31.845Z,99395.65
2023-05-15T16:42:44.443Z,99394.97
2023-05-15T16:44:57.012Z,99395.66
2023-05-15T16:47:09.517Z,99394.43
2023-05-15T16:49:22.080Z,99399.21
2023-05-15T16:51:34.649Z,99405.63
2023-05-15T16:53:47.254Z,99406.73
2023-05-15T16:55:59.767Z,99409.48
2023-05-15T16:58:12.477Z,99416.24
2023-05-15T17:00:25.303Z,99420.61
2023-05-15T17:02:38.161Z,99418.25
2023-05-15T17:04:50.785Z,99420.61
2023-05-15T17:07:04.797Z,99418.33
2023-05-15T17:09:17.378Z,99418.70
2023-05-15T17:11:29.882Z,99422.89
2023-05-15T17:13:42.438Z,99424.61
2023-05-15T17:15:55.179Z,99427.52
2023-05-15T17:18:07.821Z,99427.61
2023-05-15T17:20:20.611Z,99422.89
2023-05-15T17:22:33.239Z,99421.10
2023-05-15T17:24:51.269Z,99418.67
2023-05-15T17:27:04.645Z,99420.05
2023-05-15T17:29:17.162Z,99424.10
2023-05-15T17:31:29.787Z,99426.45
2023-05-15T17:33:42.475Z,99424.45
2023-05-15T17:35:55.133Z,99425.55
2023-05-15T17:38:08.831Z,99429.20
2023-05-15T17:40:21.368Z,99427.61
2023-05-15T17:42:34.317Z,99431.73
2023-05-15T17:44:47.246Z,99434.25
2023-05-15T17:47:00.515Z,99438.45
2023-05-15T17:49:13.151Z,99444.09
2023-05-15T17:51:26.198Z,99445.09
2023-05-15T17:53:39.007Z,99448.90
2023-05-15T17:55:51.990Z,99452.75
2023-05-15T17:58:04.915Z,99453.95
2023-05-15T18:00:17.812Z,99451.77
2023-05-15T18:02:30.596Z,99450.07
2023-05-15T18:04:44.215Z,99453.90
2023-05-15T18:06:57.081Z,99456.40
2023-05-15T18:09:11.103Z,99453.45
2023-05-15T18:11:23.667Z,99461.29
2023-05-15T18:13:36.436Z,99469.20
2023-05-15T18:15:49.175Z,99472.81
2023-05-15T18:18:02.428Z,99474.01
2023-05-15T18:20:15.400Z,99478.97
2023-05-15T18:22:28.202Z,99481.19
2023-05-15T18:24:40.858Z,99482.98
2023-05-15T18:26:53.602Z,99485.56
2023-05-15T18:29:06.277Z,99488.23
2023-05-15T18:31:18.869Z,99488.89
2023-05-15T18:33:32.864Z,99495.84
2023-05-15T18:35:45.391Z,99497.38
2023-05-15T18:37:58.578Z,99503.41
2023-05-15T18:40:11.363Z,99512.12
2023-05-15T18:42:25.329Z,99515.11
2023-05-15T18:44:37.884Z,99516.24
2023-05-15T18:46:50.389Z,99523.10
2023-05-15T18:49:03.073Z,99525.72
2023-05-15T18:51:16.140Z,99528.42
2023-05-15T18:53:28.718Z,99531.83
2023-05-15T18:55:41.241Z,99536.69
2023-05-15T18:57:55.090Z,99537.84
2023-05-15T19:00:08.479Z,99541.77
2023-05-15T19:02:21.129Z,99542.48
2023-05-15T19:04:33.769Z,99546.52
2023-05-15T19:06:50.176Z,99551.86
2023-05-15T19:09:03.197Z,99552.37
2023-05-15T19:11:16.325Z,99557.88
2023-05-15T19:13:32.513Z,99556.92
2023-05-15T19:15:52.162Z,99565.02
2023-05-15T19:18:04.917Z,99569.71
2023-05-15T19:20:17.603Z,99571.35
2023-05-15T19:22:30.207Z,99576.17
2023-05-15T19:24:42.807Z,99582.69
2023-05-15T19:26:55.378Z,99582.52
2023-05-15T19:29:07.932Z,99584.66
2023-05-15T19:31:31.558Z,99585.25
2023-05-15T19:33:44.884Z,99584.15
2023-05-15T19:35:57.494Z,99579.71
2023-05-15T19:38:10.143Z,99576.82
2023-05-15T19:40:22.715Z,99579.42
2023-05-15T19:42:35.249Z,99581.91
2023-05-15T19:44:47.884Z,99582.92
2023-05-15T19:47:00.480Z,99583.06
2023-05-15T19:49:13.209Z,99586.70
2023-05-15T19:51:25.819Z,99586.91
2023-05-15T19:53:38.361Z,99582.79
2023-05-15T19:55:51.018Z,99589.73
2023-05-15T19:58:04.059Z,99585.20
2023-05-15T20:00:17.082Z,99584.80
2023-05-15T20:02:29.922Z,99581.57
2023-05-15T20:04:42.579Z,99579.98
2023-05-15T20:06:55.300Z,99581.92
2023-05-15T20:09:07.848Z,99586.85
2023-05-15T20:11:20.991Z,99581.17
2023-05-15T20:13:34.379Z,99583.77
2023-05-15T20:15:47.027Z,99583.20
2023-05-15T20:17:59.687Z,99585.54
2023-05-15T20:20:12.635Z,99588.45
2023-05-15T20:22:26.441Z,99589.09
2023-05-15T20:24:40.002Z,99589.22
2023-05-15T20:26:52.637Z,99588.50
2023-05-15T20:29:05.332Z,99593.38
2023-05-15T20:31:17.973Z,99590.28
2023-05-15T20:33:30.839Z,99596.96
2023-05-15T20:35:43.560Z,99596.38
2023-05-15T20:37:57.431Z,99597.14
2023-05-15T20:40:13.093Z,99599.70
2023-05-15T20:42:27.787Z,99600.13
2023-05-15T20:44:40.466Z,99596.89
2023-05-15T20:46:53.005Z,99594.13
2023-05-15T20:49:05.690Z,99591.45
2023-05-15T20:51:18.241Z,99596.92
2023-05-15T20:53:30.794Z,99599.09
2023-05-15T20:55:43.429Z,99601.29
2023-05-15T20:57:56.018Z,99604.92
2023-05-15T21:00:09.013Z,99600.41
2023-05-15T21:02:21.711Z,99599.16
2023-05-15T21:04:36.220Z,99596.03
2023-05-15T21:06:48.760Z,99595.46
2023-05-15T21:09:01.354Z,99598.16
2023-05-15T21:11:13.880Z,99599.08
2023-05-15T21:13:27.550Z,99594.25
2023-05-15T21:15:40.374Z,99597.29
2023-05-15T21:17:53.003Z,99598.05
2023-05-15T21:20:06.499Z,99598.46
2023-05-15T21:22:19.486Z,99597.27
2023-05-15T21:24:33.186Z,99596.05
2023-05-15T21:26:47.129Z,99592.27
2023-05-15T21:29:00.542Z,99589.85
2023-05-15T21:31:14.683Z,99594.19
2023-05-15T21:33:27.901Z,99591.85
2023-05-15T21:35:40.972Z,99592.98
2023-05-15T21:37:54.136Z,99591.86
2023-05-15T21:40:07.654Z,99588.92
2023-05-15T21:42:20.799Z,99591.20
2023-05-15T21:44:33.426Z,99591.42
2023-05-15T21:46:46.230Z,99593.71
2023-05-15T21:48:59.499Z,99595.15
2023-05-15T21:51:12.279Z,99597.01
2023-05-15T21:53:25.607Z,99599.30
2023-05-15T21:55:38.359Z,99605.52
2023-05-15T21:57:51.304Z,99607.23
2023-05-15T22:00:07.260Z,99612.41
2023-05-15T22:02:19.845Z,99613.23
2023-05-15T22:04:32.709Z,99615.39
2023-05-15T22:06:45.613Z,99617.84
2023-05-15T22:08:58.100Z,99618.88
2023-05-15T22:11:10.683Z,99622.73
2023-05-15T22:13:23.482Z,99625.56
2023-05-15T22:15:36.810Z,99625.83
2023-05-15T22:17:49.457Z,99626.98
2023-05-15T22:20:06.324Z,99629.68
2023-05-15T22:22:20.790Z,99634.87
2023-05-15T22:24:33.364Z,99631.98
2023-05-15T22:26:45.861Z,99630.21
2023-05-15T22:28:58.603Z,99630.88
2023-05-15T22:31:11.129Z,99637.33
2023-05-15T22:33:24.406Z,99639.63
2023-05-15T22:35:37.214Z,99645.50
2023-05-15T22:37:49.828Z,99643.79
2023-05-15T22:40:02.721Z,99651.30
2023-05-15T22:42:15.303Z,99646.55
2023-05-15T22:44:28.408Z,99650.09
2023-05-15T22:46:41.058Z,99650.31
2023-05-15T22:48:54.021Z,99650.29
2023-05-15T22:51:06.794Z,99652.40
2023-05-15T22:53:19.402Z,99648.47
2023-05-15T22:55:31.919Z,99651.62
2023-05-15T22:57:44.886Z,99650.86
2023-05-15T22:59:57.787Z,99652.23
2023-05-15T23:02:10.436Z,99656.66
2023-05-15T23:04:23.135Z,99657.01
2023-05-15T23:06:36.085Z,99655.64
2023-05-15T23:08:50.137Z,99656.67
2023-05-15T23:11:02.734Z,99658.21
2023-05-15T23:13:15.246Z,99661.40
2023-05-15T23:15:28.137Z,99660.92
2023-05-15T23:17:40.951Z,99663.92
2023-05-15T23:19:53.549Z,99662.99
2023-05-15T23:22:06.379Z,99666.20
2023-05-15T23:24:18.906Z,99667.89
2023-05-15T23:26:31.459Z,99669.39
2023-05-15T23:28:44.061Z,99668.10
2023-05-15T23:30:56.672Z,99670.53
2023-05-15T23:33:09.334Z,99673.07
2023-05-15T23:35:22.291Z,99685.11
2023-05-15T23:37:34.827Z,99685.68
2023-05-15T23:39:47.373Z,99689.75
2023-05-15T23:42:00.108Z,99689.38
2023-05-15T23:44:12.875Z,99691.64
2023-05-15T23:46:25.618Z,99693.92
2023-05-15T23:48:38.183Z,99697.98
2023-05-15T23:50:52.238Z,99694.66
2023-05-15T23:53:04.874Z,99695.20
2023-05-15T23:55:17.702Z,99691.24
2023-05-15T23:57:30.415Z,99691.26
2023-05-15T23:59:42.972Z,99689.13
